createdAt,value
2023-02-19T00:01:34.901Z,9.90
2023-02-19T00:03:07.945Z,9.90
2023-02-19T00:04:42.456Z,9.80
2023-02-19T00:06:14.485Z,10.00
2023-02-19T00:07:47.459Z,9.90
2023-02-19T00:09:21.473Z,9.90
2023-02-19T00:10:53.490Z,9.40
2023-02-19T00:12:26.574Z,9.80
2023-02-19T00:14:01.361Z,9.80
2023-02-19T00:15:34.776Z,9.80
2023-02-19T00:17:07.595Z,9.80
2023-02-19T00:18:40.733Z,9.70
2023-02-19T00:20:15.220Z,9.70
2023-02-19T00:21:48.656Z,9.70
2023-02-19T00:23:21.622Z,9.70
2023-02-19T00:24:54.563Z,9.70
2023-02-19T00:26:27.939Z,9.80
2023-02-19T00:28:00.694Z,9.70
2023-02-19T00:29:33.732Z,9.70
2023-02-19T00:31:06.907Z,9.10
2023-02-19T00:32:39.897Z,9.70
2023-02-19T00:34:14.296Z,9.70
2023-02-19T00:35:48.567Z,9.70
2023-02-19T00:37:21.544Z,9.70
2023-02-19T00:38:54.485Z,9.80
2023-02-19T00:40:27.420Z,9.70
2023-02-19T00:42:00.892Z,9.70
2023-02-19T00:43:33.944Z,9.70
2023-02-19T00:45:07.481Z,9.70
2023-02-19T00:46:42.494Z,9.70
2023-02-19T00:48:15.446Z,9.80
2023-02-19T00:49:48.442Z,9.70
2023-02-19T00:51:23.736Z,9.70
2023-02-19T00:52:56.754Z,9.70
2023-02-19T00:54:31.559Z,9.60
2023-02-19T00:56:05.200Z,9.70
2023-02-19T00:57:38.165Z,9.60
2023-02-19T00:59:11.502Z,9.60
2023-02-19T01:00:43.307Z,9.60
2023-02-19T01:02:16.338Z,9.50
2023-02-19T01:03:49.749Z,9.50
2023-02-19T01:05:22.678Z,9.50
2023-02-19T01:06:57.007Z,9.50
2023-02-19T01:08:34.453Z,9.50
2023-02-19T01:10:10.731Z,9.40
2023-02-19T01:11:54.030Z,9.40
2023-02-19T01:13:31.007Z,9.40
2023-02-19T01:15:04.549Z,9.30
2023-02-19T01:16:36.549Z,9.30
2023-02-19T01:18:09.593Z,9.30
2023-02-19T01:19:49.869Z,9.30
2023-02-19T01:21:27.920Z,9.30
2023-02-19T01:23:02.592Z,9.30
2023-02-19T01:24:35.573Z,9.30
2023-02-19T01:26:09.573Z,9.30
2023-02-19T01:27:42.565Z,9.30
2023-02-19T01:29:26.562Z,8.80
2023-02-19T01:31:02.624Z,9.30
2023-02-19T01:32:35.483Z,9.30
2023-02-19T01:34:10.740Z,9.30
2023-02-19T01:35:42.695Z,9.30
2023-02-19T01:37:15.667Z,9.30
2023-02-19T01:38:50.531Z,9.30
2023-02-19T01:40:23.745Z,8.70
2023-02-19T01:41:58.526Z,9.30
2023-02-19T01:44:34.303Z,9.30
2023-02-19T01:46:07.250Z,9.30
2023-02-19T01:47:39.297Z,9.30
2023-02-19T01:49:16.816Z,9.30
2023-02-19T01:50:54.070Z,9.30
2023-02-19T01:52:32.621Z,9.30
2023-02-19T01:54:17.750Z,9.30
2023-02-19T01:55:55.376Z,9.30
2023-02-19T01:57:33.009Z,9.30
2023-02-19T02:06:14.300Z,9.50
2023-02-19T02:16:46.179Z,9.20
2023-02-19T02:18:29.255Z,9.20
2023-02-19T02:20:33.399Z,9.20
2023-02-19T02:22:12.620Z,8.70
2023-02-19T02:24:01.954Z,9.20
2023-02-19T02:25:50.860Z,9.40
2023-02-19T02:27:40.407Z,9.30
2023-02-19T02:29:38.119Z,9.20
2023-02-19T02:31:16.131Z,9.20
2023-02-19T02:32:57.213Z,9.20
2023-02-19T02:34:35.815Z,9.30
2023-02-19T02:36:46.757Z,9.30
2023-02-19T02:39:19.133Z,9.30
2023-02-19T02:46:41.006Z,9.20
2023-02-19T02:51:40.697Z,9.30
2023-02-19T02:54:19.369Z,9.50
2023-02-19T02:56:42.875Z,9.40
2023-02-19T03:01:39.738Z,9.30
2023-02-19T03:05:54.360Z,9.40
2023-02-19T03:07:52.486Z,9.40
2023-02-19T03:09:49.747Z,9.30
2023-02-19T03:12:12.500Z,10.00
2023-02-19T03:14:37.780Z,9.30
2023-02-19T03:16:59.921Z,9.30
2023-02-19T03:21:33.856Z,9.30
2023-02-19T03:24:01.922Z,9.30
2023-02-19T03:28:51.088Z,9.70
2023-02-19T03:36:12.225Z,9.10
2023-02-19T03:43:41.854Z,9.40
2023-02-19T03:46:00.923Z,9.40
2023-02-19T03:56:02.927Z,9.30
2023-02-19T03:58:34.166Z,9.40
2023-02-19T04:00:52.825Z,9.30
2023-02-19T04:03:07.024Z,9.40
2023-02-19T04:07:19.108Z,9.40
2023-02-19T04:12:23.434Z,9.40
2023-02-19T04:18:34.926Z,9.40
2023-02-19T04:21:05.520Z,9.40
2023-02-19T04:22:50.928Z,9.40
2023-02-19T04:24:57.549Z,9.40
2023-02-19T04:26:47.623Z,9.50
2023-02-19T04:28:53.961Z,9.40
2023-02-19T04:33:54.357Z,9.40
2023-02-19T04:35:53.561Z,9.40
2023-02-19T04:38:15.077Z,9.70
2023-02-19T04:40:33.999Z,9.40
2023-02-19T04:54:51.020Z,9.30
2023-02-19T04:56:42.884Z,9.30
2023-02-19T04:58:21.485Z,9.30
2023-02-19T04:59:59.507Z,9.20
2023-02-19T05:01:32.730Z,9.30
2023-02-19T05:03:08.796Z,9.30
2023-02-19T05:04:42.452Z,9.60
2023-02-19T05:06:15.898Z,9.30
2023-02-19T05:07:48.989Z,9.30
2023-02-19T05:09:22.164Z,9.30
2023-02-19T05:11:00.171Z,9.30
2023-02-19T05:12:33.410Z,9.40
2023-02-19T05:14:06.412Z,9.30
2023-02-19T05:15:39.667Z,9.30
2023-02-19T05:17:12.814Z,9.30
2023-02-19T05:18:47.234Z,9.30
2023-02-19T05:20:22.325Z,9.30
2023-02-19T05:21:55.454Z,9.40
2023-02-19T05:23:28.716Z,9.40
2023-02-19T05:25:02.142Z,9.30
2023-02-19T05:26:36.697Z,9.30
2023-02-19T05:28:18.686Z,9.30
2023-02-19T05:29:52.112Z,9.40
2023-02-19T05:31:24.720Z,9.40
2023-02-19T05:32:57.772Z,9.30
2023-02-19T05:34:30.839Z,9.40
2023-02-19T05:36:07.418Z,9.00
2023-02-19T05:37:40.501Z,9.30
2023-02-19T05:39:14.075Z,9.40
2023-02-19T05:40:47.700Z,9.40
2023-02-19T05:42:22.362Z,9.40
2023-02-19T05:43:58.172Z,9.40
2023-02-19T05:45:30.202Z,9.40
2023-02-19T05:47:03.185Z,9.40
2023-02-19T05:48:47.517Z,9.40
2023-02-19T05:50:19.491Z,9.40
2023-02-19T05:51:52.506Z,9.50
2023-02-19T05:53:25.567Z,9.40
2023-02-19T05:54:58.702Z,9.50
2023-02-19T05:56:35.084Z,9.40
2023-02-19T05:58:09.486Z,9.40
2023-02-19T05:59:42.484Z,9.40
2023-02-19T06:01:20.490Z,9.30
2023-02-19T06:02:53.582Z,9.40
2023-02-19T06:04:26.811Z,9.50
2023-02-19T06:05:59.950Z,9.40
2023-02-19T06:07:33.402Z,9.50
2023-02-19T06:09:07.156Z,9.50
2023-02-19T06:10:41.408Z,9.50
2023-02-19T06:12:15.359Z,9.50
2023-02-19T06:13:50.510Z,9.50
2023-02-19T06:15:23.596Z,9.50
2023-02-19T06:16:56.575Z,9.40
2023-02-19T06:18:28.766Z,9.40
2023-02-19T06:20:02.090Z,9.40
2023-02-19T06:21:35.226Z,9.40
2023-02-19T06:23:08.493Z,9.40
2023-02-19T06:24:41.723Z,9.30
2023-02-19T06:26:17.714Z,9.30
2023-02-19T06:27:50.790Z,9.30
2023-02-19T06:29:25.205Z,9.30
2023-02-19T06:31:00.041Z,9.30
2023-02-19T06:32:33.600Z,9.20
2023-02-19T06:34:07.263Z,9.60
2023-02-19T06:35:39.281Z,9.30
2023-02-19T06:37:14.917Z,9.30
2023-02-19T06:38:48.164Z,9.30
2023-02-19T06:40:21.204Z,9.30
2023-02-19T06:41:56.448Z,8.90
2023-02-19T06:43:29.820Z,9.40
2023-02-19T06:45:03.991Z,9.40
2023-02-19T06:46:37.239Z,9.40
2023-02-19T06:48:10.098Z,9.40
2023-02-19T06:49:43.218Z,9.40
2023-02-19T06:51:19.427Z,10.50
2023-02-19T06:52:52.415Z,9.40
2023-02-19T06:54:26.447Z,9.40
2023-02-19T06:56:00.840Z,9.40
2023-02-19T06:57:33.861Z,9.40
2023-02-19T06:59:08.614Z,9.50
2023-02-19T07:00:43.147Z,9.40
2023-02-19T07:02:16.466Z,9.40
2023-02-19T07:03:49.540Z,9.40
2023-02-19T07:05:22.564Z,9.40
2023-02-19T07:06:55.759Z,9.50
2023-02-19T07:08:29.725Z,9.50
2023-02-19T07:10:02.996Z,9.50
2023-02-19T07:11:39.036Z,9.40
2023-02-19T07:13:12.312Z,9.50
2023-02-19T07:14:45.404Z,10.10
2023-02-19T07:16:19.870Z,9.60
2023-02-19T07:17:52.969Z,9.50
2023-02-19T07:19:26.253Z,9.70
2023-02-19T07:21:04.069Z,9.60
2023-02-19T07:22:37.256Z,9.60
2023-02-19T07:24:11.120Z,9.70
2023-02-19T07:25:43.512Z,9.70
2023-02-19T07:27:16.594Z,9.70
2023-02-19T07:28:51.518Z,9.70
2023-02-19T07:30:24.823Z,9.70
2023-02-19T07:31:59.155Z,9.80
2023-02-19T07:33:32.604Z,9.80
2023-02-19T07:35:06.175Z,9.80
2023-02-19T07:36:39.412Z,9.80
2023-02-19T07:38:17.326Z,9.90
2023-02-19T07:39:50.392Z,9.90
2023-02-19T07:41:27.459Z,10.00
2023-02-19T07:43:01.293Z,10.00
2023-02-19T07:44:34.342Z,10.00
2023-02-19T07:46:08.102Z,10.00
2023-02-19T07:47:42.459Z,10.10
2023-02-19T07:49:15.515Z,10.10
2023-02-19T07:50:52.855Z,10.10
2023-02-19T07:52:25.983Z,10.10
2023-02-19T07:53:58.976Z,10.10
2023-02-19T07:55:31.942Z,10.10
2023-02-19T07:57:05.071Z,10.10
2023-02-19T07:58:38.069Z,10.10
2023-02-19T08:00:12.318Z,10.10
2023-02-19T08:02:02.774Z,10.20
2023-02-19T08:03:37.639Z,10.20
2023-02-19T08:05:10.553Z,10.20
2023-02-19T08:06:44.005Z,10.20
2023-02-19T08:08:16.911Z,10.20
2023-02-19T08:10:09.854Z,10.20
2023-02-19T08:12:00.430Z,10.30
2023-02-19T08:13:33.239Z,10.30
2023-02-19T08:15:06.703Z,10.40
2023-02-19T08:16:43.226Z,10.40
2023-02-19T08:18:16.488Z,10.40
2023-02-19T08:19:50.795Z,10.40
2023-02-19T08:21:24.476Z,10.40
2023-02-19T08:22:57.679Z,10.40
2023-02-19T08:24:31.159Z,10.40
2023-02-19T08:26:04.494Z,10.40
2023-02-19T08:27:37.305Z,10.40
2023-02-19T08:29:10.278Z,10.40
2023-02-19T08:30:45.697Z,10.50
2023-02-19T08:32:19.718Z,10.50
2023-02-19T08:33:53.114Z,10.50
2023-02-19T08:35:27.931Z,10.50
2023-02-19T08:37:02.082Z,10.40
2023-02-19T08:38:36.703Z,10.40
2023-02-19T08:40:11.092Z,10.50
2023-02-19T08:41:44.572Z,10.40
2023-02-19T08:43:19.451Z,10.40
2023-02-19T08:44:53.231Z,10.40
2023-02-19T08:46:26.678Z,10.40
2023-02-19T08:48:00.412Z,10.40
2023-02-19T08:49:33.789Z,10.40
2023-02-19T08:51:09.611Z,10.30
2023-02-19T08:52:43.121Z,10.40
2023-02-19T08:54:16.498Z,10.30
2023-02-19T08:55:50.332Z,10.30
2023-02-19T08:57:23.809Z,10.30
2023-02-19T08:58:57.063Z,10.40
2023-02-19T09:00:30.447Z,10.40
2023-02-19T09:02:03.415Z,10.40
2023-02-19T09:03:36.887Z,10.50
2023-02-19T09:05:11.626Z,10.60
2023-02-19T09:06:47.761Z,10.60
2023-02-19T09:08:21.330Z,10.70
2023-02-19T09:09:54.943Z,10.70
2023-02-19T09:11:28.262Z,10.80
2023-02-19T09:13:02.629Z,10.90
2023-02-19T09:14:35.776Z,11.00
2023-02-19T09:16:09.607Z,11.00
2023-02-19T09:17:42.992Z,11.10
2023-02-19T09:19:16.294Z,11.10
2023-02-19T09:20:49.682Z,11.10
2023-02-19T09:22:24.089Z,11.10
2023-02-19T09:23:57.928Z,11.10
2023-02-19T09:25:31.925Z,10.00
2023-02-19T09:27:05.140Z,11.20
2023-02-19T09:28:41.719Z,11.20
2023-02-19T09:30:15.161Z,11.10
2023-02-19T09:31:48.481Z,11.20
2023-02-19T09:33:21.975Z,11.20
2023-02-19T09:34:55.523Z,11.20
2023-02-19T09:36:28.866Z,11.10
2023-02-19T09:38:03.546Z,11.00
2023-02-19T09:39:38.133Z,10.80
2023-02-19T09:41:18.210Z,11.00
2023-02-19T09:42:54.636Z,10.70
2023-02-19T09:44:31.031Z,10.70
2023-02-19T09:46:09.302Z,10.80
2023-02-19T09:47:45.650Z,11.00
2023-02-19T09:49:21.787Z,11.00
2023-02-19T09:50:56.398Z,11.00
2023-02-19T09:52:35.509Z,11.10
2023-02-19T09:54:19.348Z,11.10
2023-02-19T09:55:53.352Z,11.10
2023-02-19T09:57:29.592Z,11.00
2023-02-19T09:59:02.998Z,10.90
2023-02-19T10:00:38.783Z,10.90
2023-02-19T10:02:16.446Z,10.90
2023-02-19T10:03:50.560Z,10.90
2023-02-19T10:05:26.099Z,10.90
2023-02-19T10:07:03.759Z,10.90
2023-02-19T10:08:37.810Z,10.90
2023-02-19T10:10:28.018Z,10.90
2023-02-19T10:12:01.745Z,10.50
2023-02-19T10:13:42.803Z,10.90
2023-02-19T10:15:25.436Z,10.90
2023-02-19T10:17:00.763Z,10.90
2023-02-19T10:18:42.329Z,11.00
2023-02-19T10:20:22.462Z,11.20
2023-02-19T10:21:56.717Z,11.00
2023-02-19T10:23:29.871Z,11.00
2023-02-19T10:25:03.454Z,11.00
2023-02-19T10:26:37.891Z,11.00
2023-02-19T10:28:14.388Z,11.00
2023-02-19T10:29:51.136Z,11.00
2023-02-19T10:31:26.812Z,10.90
2023-02-19T10:33:03.205Z,10.90
2023-02-19T10:34:36.238Z,10.90
2023-02-19T10:36:23.417Z,10.90
2023-02-19T10:37:56.930Z,11.00
2023-02-19T10:39:42.231Z,11.00
2023-02-19T10:41:17.916Z,11.00
2023-02-19T10:42:55.240Z,11.10
2023-02-19T10:44:31.470Z,11.20
2023-02-19T10:46:08.178Z,11.30
2023-02-19T10:47:47.655Z,11.40
2023-02-19T10:49:26.517Z,11.40
2023-02-19T10:51:08.815Z,11.40
2023-02-19T10:52:42.404Z,11.40
2023-02-19T10:54:18.958Z,11.30
2023-02-19T10:56:08.407Z,11.30
2023-02-19T10:57:41.620Z,11.20
2023-02-19T10:59:26.533Z,11.30
2023-02-19T11:01:20.663Z,11.40
2023-02-19T11:03:15.333Z,11.40
2023-02-19T11:05:05.966Z,11.40
2023-02-19T11:06:39.349Z,11.40
2023-02-19T11:08:22.201Z,11.30
2023-02-19T11:09:55.911Z,11.30
2023-02-19T11:11:34.607Z,11.20
2023-02-19T11:13:15.200Z,11.20
2023-02-19T11:14:49.706Z,11.20
2023-02-19T11:16:22.905Z,11.20
2023-02-19T11:17:58.058Z,11.20
2023-02-19T11:19:37.861Z,11.20
2023-02-19T11:21:33.105Z,11.20
2023-02-19T11:23:15.493Z,11.20
2023-02-19T11:24:57.295Z,11.10
2023-02-19T11:26:41.068Z,11.00
2023-02-19T11:28:44.706Z,11.50
2023-02-19T11:31:06.589Z,10.90
2023-02-19T11:32:39.754Z,11.10
2023-02-19T11:34:29.857Z,10.80
2023-02-19T11:36:22.550Z,10.60
2023-02-19T11:37:57.759Z,10.30
2023-02-19T11:39:33.808Z,10.30
2023-02-19T11:41:15.808Z,10.10
2023-02-19T11:42:53.484Z,10.20
2023-02-19T11:44:39.818Z,10.10
2023-02-19T11:46:22.367Z,10.10
2023-02-19T11:48:19.192Z,10.10
2023-02-19T11:50:01.345Z,10.10
2023-02-19T11:51:58.937Z,11.10
2023-02-19T11:53:34.732Z,10.20
2023-02-19T11:55:18.260Z,10.20
2023-02-19T11:57:00.190Z,10.30
2023-02-19T11:59:06.261Z,9.30
2023-02-19T12:00:49.784Z,10.40
2023-02-19T12:03:02.118Z,10.50
2023-02-19T12:05:19.077Z,10.30
2023-02-19T12:07:03.395Z,10.70
2023-02-19T12:08:51.681Z,10.70
2023-02-19T12:10:29.853Z,10.70
2023-02-19T12:12:18.524Z,10.70
2023-02-19T12:14:10.802Z,10.70
2023-02-19T12:17:48.196Z,10.80
2023-02-19T12:19:44.690Z,10.70
2023-02-19T12:21:35.362Z,10.90
2023-02-19T12:23:37.806Z,11.00
2023-02-19T12:25:42.390Z,11.10
2023-02-19T12:27:27.958Z,11.30
2023-02-19T12:29:19.168Z,12.00
2023-02-19T12:31:19.008Z,11.40
2023-02-19T12:33:13.712Z,11.30
2023-02-19T12:35:13.940Z,11.30
2023-02-19T12:36:59.581Z,11.10
2023-02-19T12:38:37.961Z,10.70
2023-02-19T12:40:25.301Z,10.60
2023-02-19T12:42:03.954Z,10.60
2023-02-19T12:43:40.294Z,10.80
2023-02-19T12:45:21.085Z,10.80
2023-02-19T12:46:57.506Z,11.10
2023-02-19T12:48:34.969Z,11.20
2023-02-19T12:50:21.951Z,11.30
2023-02-19T12:52:00.273Z,11.40
2023-02-19T12:53:40.065Z,11.60
2023-02-19T12:55:23.096Z,11.70
2023-02-19T12:57:01.279Z,11.90
2023-02-19T12:58:42.460Z,12.00
2023-02-19T13:00:30.504Z,12.10
2023-02-19T13:02:11.388Z,12.10
2023-02-19T13:03:53.666Z,12.10
2023-02-19T13:05:42.002Z,12.30
2023-02-19T13:07:18.367Z,12.30
2023-02-19T13:09:06.693Z,12.60
2023-02-19T13:10:45.247Z,12.30
2023-02-19T13:12:23.424Z,11.80
2023-02-19T13:14:00.999Z,11.90
2023-02-19T13:15:40.130Z,11.80
2023-02-19T13:17:23.635Z,11.80
2023-02-19T13:18:59.905Z,11.70
2023-02-19T13:20:37.866Z,11.60
2023-02-19T13:22:48.353Z,11.50
2023-02-19T13:24:25.113Z,11.40
2023-02-19T13:26:20.117Z,11.30
2023-02-19T13:28:14.166Z,11.20
2023-02-19T13:30:12.136Z,11.10
2023-02-19T13:32:11.009Z,11.10
2023-02-19T13:33:55.228Z,11.00
2023-02-19T13:35:53.945Z,11.00
2023-02-19T13:37:28.971Z,11.00
2023-02-19T13:39:05.656Z,11.10
2023-02-19T13:40:42.457Z,10.90
2023-02-19T13:42:25.997Z,11.40
2023-02-19T13:44:03.051Z,11.50
2023-02-19T13:45:40.823Z,11.20
2023-02-19T13:47:48.225Z,11.50
2023-02-19T13:49:42.899Z,11.50
2023-02-19T13:51:49.254Z,10.80
2023-02-19T13:53:51.764Z,11.50
2023-02-19T13:55:52.986Z,11.90
2023-02-19T13:57:28.983Z,11.50
2023-02-19T13:59:29.029Z,11.40
2023-02-19T14:01:03.046Z,11.40
2023-02-19T14:02:36.385Z,11.40
2023-02-19T14:04:10.362Z,11.40
2023-02-19T14:06:08.689Z,11.40
2023-02-19T14:08:02.776Z,11.50
2023-02-19T14:09:48.297Z,11.40
2023-02-19T14:11:59.842Z,10.90
2023-02-19T14:14:06.926Z,11.40
2023-02-19T14:15:43.845Z,11.40
2023-02-19T14:17:28.270Z,11.40
2023-02-19T14:19:00.624Z,11.30
2023-02-19T14:20:44.990Z,11.10
2023-02-19T14:23:01.597Z,11.00
2023-02-19T14:24:35.047Z,10.90
2023-02-19T14:26:09.363Z,10.90
2023-02-19T14:27:41.216Z,10.80
2023-02-19T14:29:16.576Z,11.40
2023-02-19T14:30:52.912Z,10.70
2023-02-19T14:32:26.291Z,10.60
2023-02-19T14:34:00.504Z,10.50
2023-02-19T14:35:39.466Z,10.50
2023-02-19T14:37:18.905Z,10.30
2023-02-19T14:38:54.798Z,10.30
2023-02-19T14:40:33.673Z,10.10
2023-02-19T14:42:15.104Z,10.00
2023-02-19T14:43:51.810Z,10.00
2023-02-19T14:45:25.682Z,9.00
2023-02-19T14:47:01.642Z,9.50
2023-02-19T14:48:38.814Z,9.90
2023-02-19T14:50:16.953Z,9.90
2023-02-19T14:51:53.893Z,10.20
2023-02-19T14:53:28.967Z,10.20
2023-02-19T14:55:07.421Z,10.30
2023-02-19T14:56:41.136Z,10.40
2023-02-19T14:58:18.857Z,10.40
2023-02-19T14:59:58.216Z,10.40
2023-02-19T15:01:31.267Z,10.50
2023-02-19T15:03:05.392Z,10.60
2023-02-19T15:04:40.006Z,10.60
2023-02-19T15:06:17.522Z,10.70
2023-02-19T15:07:52.163Z,10.60
2023-02-19T15:09:32.024Z,10.50
2023-02-19T15:11:10.250Z,11.20
2023-02-19T15:12:47.786Z,10.50
2023-02-19T15:14:24.093Z,10.50
2023-02-19T15:15:57.972Z,10.60
2023-02-19T15:17:33.284Z,10.70
2023-02-19T15:19:09.245Z,10.40
2023-02-19T15:20:44.156Z,10.90
2023-02-19T15:22:21.706Z,11.10
2023-02-19T15:23:56.811Z,11.00
2023-02-19T15:25:34.950Z,11.20
2023-02-19T15:27:07.933Z,11.20
2023-02-19T15:28:40.813Z,11.20
2023-02-19T15:30:23.024Z,11.20
2023-02-19T15:31:58.319Z,10.60
2023-02-19T15:33:31.301Z,11.10
2023-02-19T15:35:05.949Z,11.00
2023-02-19T15:36:38.962Z,11.60
2023-02-19T15:38:13.029Z,10.90
2023-02-19T15:39:48.191Z,10.70
2023-02-19T15:41:24.000Z,10.70
2023-02-19T15:42:57.329Z,10.70
2023-02-19T15:44:33.266Z,10.50
2023-02-19T15:46:15.771Z,10.50
2023-02-19T15:47:52.780Z,10.40
2023-02-19T15:49:33.231Z,10.40
2023-02-19T15:51:14.215Z,10.20
2023-02-19T15:52:50.853Z,10.30
2023-02-19T15:54:29.279Z,10.30
2023-02-19T15:56:07.046Z,11.80
2023-02-19T15:57:44.619Z,10.20
2023-02-19T15:59:24.088Z,10.20
2023-02-19T16:00:59.180Z,10.20
2023-02-19T16:02:34.182Z,10.10
2023-02-19T16:04:13.877Z,10.10
2023-02-19T16:05:47.718Z,10.10
2023-02-19T16:07:28.427Z,9.50
2023-02-19T16:09:02.925Z,10.00
2023-02-19T16:10:35.890Z,10.00
2023-02-19T16:12:21.366Z,9.90
2023-02-19T16:14:14.914Z,9.90
2023-02-19T16:15:59.678Z,10.00
2023-02-19T16:17:35.483Z,9.90
2023-02-19T16:19:09.718Z,10.00
2023-02-19T16:20:48.753Z,10.00
2023-02-19T16:22:24.698Z,10.00
2023-02-19T16:24:04.568Z,10.00
2023-02-19T16:25:41.909Z,10.00
2023-02-19T16:27:27.012Z,9.90
2023-02-19T16:29:00.025Z,10.00
2023-02-19T16:30:36.135Z,9.60
2023-02-19T16:32:17.196Z,9.90
2023-02-19T16:33:52.893Z,9.90
2023-02-19T16:35:39.765Z,9.90
2023-02-19T16:37:35.072Z,9.80
2023-02-19T16:39:24.599Z,9.30
2023-02-19T16:41:13.603Z,9.70
2023-02-19T16:43:29.163Z,9.70
2023-02-19T16:45:02.075Z,9.70
2023-02-19T16:46:35.046Z,8.30
2023-02-19T16:48:09.008Z,9.60
2023-02-19T16:49:44.143Z,9.60
2023-02-19T16:51:27.260Z,9.50
2023-02-19T16:53:02.441Z,10.90
2023-02-19T16:54:35.340Z,8.90
2023-02-19T16:56:14.560Z,9.50
2023-02-19T16:57:47.463Z,9.50
2023-02-19T16:59:20.388Z,9.40
2023-02-19T17:00:53.679Z,9.40
2023-02-19T17:02:26.928Z,10.20
2023-02-19T17:04:03.867Z,9.40
2023-02-19T17:05:39.690Z,9.30
2023-02-19T17:07:15.628Z,10.10
2023-02-19T17:08:48.830Z,9.30
2023-02-19T17:10:23.895Z,8.80
2023-02-19T17:11:56.845Z,9.30
2023-02-19T17:13:30.033Z,9.40
2023-02-19T17:15:02.954Z,9.30
2023-02-19T17:16:39.798Z,9.40
2023-02-19T17:18:13.699Z,9.40
2023-02-19T17:19:46.649Z,10.10
2023-02-19T17:21:23.758Z,9.40
2023-02-19T17:22:56.959Z,9.30
2023-02-19T17:24:30.008Z,9.40
2023-02-19T17:26:03.404Z,9.40
2023-02-19T17:27:36.216Z,9.40
2023-02-19T17:29:13.978Z,9.40
2023-02-19T17:30:46.933Z,9.50
2023-02-19T17:32:19.961Z,10.10
2023-02-19T17:33:52.989Z,9.40
2023-02-19T17:35:26.402Z,9.30
2023-02-19T17:37:00.567Z,9.40
2023-02-19T17:38:33.579Z,9.20
2023-02-19T17:40:31.859Z,9.10
2023-02-19T17:42:06.062Z,9.10
2023-02-19T17:43:38.999Z,9.00
2023-02-19T17:45:12.114Z,8.90
2023-02-19T17:46:47.715Z,8.90
2023-02-19T17:48:20.647Z,8.80
2023-02-19T17:49:53.578Z,8.80
2023-02-19T17:51:26.578Z,8.50
2023-02-19T17:53:00.898Z,8.00
2023-02-19T17:54:34.320Z,8.80
2023-02-19T17:56:07.654Z,8.00
2023-02-19T17:57:40.382Z,8.70
2023-02-19T17:59:13.744Z,8.70
2023-02-19T18:00:46.484Z,8.80
2023-02-19T18:02:19.489Z,8.90
2023-02-19T18:03:52.564Z,8.90
2023-02-19T18:05:25.916Z,8.90
2023-02-19T18:06:58.741Z,8.90
2023-02-19T18:08:33.068Z,9.00
2023-02-19T18:10:07.152Z,8.40
2023-02-19T18:11:40.056Z,8.90
2023-02-19T18:13:12.990Z,8.90
2023-02-19T18:14:47.397Z,8.90
2023-02-19T18:16:20.826Z,8.90
2023-02-19T18:17:53.941Z,8.90
2023-02-19T18:19:26.903Z,8.90
2023-02-19T18:20:59.898Z,8.80
2023-02-19T18:22:33.218Z,8.80
2023-02-19T18:24:08.364Z,9.10
2023-02-19T18:25:41.459Z,8.80
2023-02-19T18:27:14.642Z,8.80
2023-02-19T18:28:47.637Z,8.90
2023-02-19T18:30:22.967Z,7.90
2023-02-19T18:31:56.044Z,8.70
2023-02-19T18:33:29.072Z,8.70
2023-02-19T18:35:02.516Z,8.80
2023-02-19T18:36:35.381Z,8.80
2023-02-19T18:38:08.483Z,9.60
2023-02-19T18:39:43.909Z,10.30
2023-02-19T18:41:21.053Z,8.90
2023-02-19T18:42:54.488Z,8.90
2023-02-19T18:44:27.663Z,8.90
2023-02-19T18:46:00.624Z,9.00
2023-02-19T18:47:33.790Z,9.00
2023-02-19T18:49:08.008Z,9.00
2023-02-19T18:50:41.014Z,9.10
2023-02-19T18:52:14.199Z,9.00
2023-02-19T18:53:47.489Z,9.10
2023-02-19T18:55:21.804Z,8.60
2023-02-19T18:56:55.052Z,9.10
2023-02-19T18:58:28.453Z,9.00
2023-02-19T19:00:01.309Z,9.10
2023-02-19T19:01:34.577Z,9.10
2023-02-19T19:03:07.656Z,9.10
2023-02-19T19:04:41.587Z,9.20
2023-02-19T19:06:14.617Z,9.00
2023-02-19T19:07:47.555Z,9.10
2023-02-19T19:09:20.588Z,8.80
2023-02-19T19:10:55.028Z,9.10
2023-02-19T19:12:28.049Z,9.00
2023-02-19T19:14:01.053Z,9.00
2023-02-19T19:15:34.027Z,9.30
2023-02-19T19:17:07.501Z,9.00
2023-02-19T19:18:40.459Z,8.90
2023-02-19T19:20:13.862Z,9.00
2023-02-19T19:21:47.154Z,9.00
2023-02-19T19:23:20.117Z,9.00
2023-02-19T19:24:53.203Z,9.00
2023-02-19T19:26:27.547Z,8.90
2023-02-19T19:28:00.534Z,9.00
2023-02-19T19:29:33.615Z,9.00
2023-02-19T19:31:06.913Z,9.00
2023-02-19T19:32:40.068Z,9.00
2023-02-19T19:34:13.883Z,8.90
2023-02-19T19:35:47.009Z,8.90
2023-02-19T19:37:19.965Z,9.50
2023-02-19T19:38:52.847Z,8.90
2023-02-19T19:40:25.891Z,8.90
2023-02-19T19:41:59.240Z,8.90
2023-02-19T19:43:33.322Z,8.90
2023-02-19T19:45:07.066Z,8.90
2023-02-19T19:46:45.423Z,8.20
2023-02-19T19:48:18.552Z,8.90
2023-02-19T19:49:51.518Z,8.90
2023-02-19T19:51:24.895Z,8.90
2023-02-19T19:52:57.737Z,8.90
2023-02-19T19:54:30.769Z,9.50
2023-02-19T19:56:04.146Z,8.90
2023-02-19T19:57:40.762Z,8.90
2023-02-19T19:59:15.342Z,8.90
2023-02-19T20:00:48.359Z,8.90
2023-02-19T20:02:22.723Z,8.90
2023-02-19T20:03:55.638Z,8.90
2023-02-19T20:05:28.647Z,8.90
2023-02-19T20:07:02.029Z,8.80
2023-02-19T20:08:34.845Z,8.90
2023-02-19T20:10:11.044Z,8.90
2023-02-19T20:11:48.600Z,8.30
2023-02-19T20:13:24.495Z,8.90
2023-02-19T20:14:57.520Z,9.30
2023-02-19T20:16:30.684Z,8.90
2023-02-19T20:18:03.994Z,8.30
2023-02-19T20:19:36.876Z,8.90
2023-02-19T20:21:11.204Z,8.80
2023-02-19T20:22:44.484Z,8.90
2023-02-19T20:24:18.657Z,9.00
2023-02-19T20:25:51.558Z,8.90
2023-02-19T20:27:25.105Z,8.90
2023-02-19T20:28:59.879Z,8.80
2023-02-19T20:30:33.029Z,8.90
2023-02-19T20:32:06.393Z,8.90
2023-02-19T20:33:39.151Z,8.90
2023-02-19T20:35:12.663Z,8.30
2023-02-19T20:36:46.851Z,8.80
2023-02-19T20:38:19.808Z,8.80
2023-02-19T20:39:52.744Z,8.80
2023-02-19T20:41:25.725Z,8.80
2023-02-19T20:43:00.850Z,10.10
2023-02-19T20:44:35.227Z,8.70
2023-02-19T20:46:08.652Z,8.80
2023-02-19T20:47:41.410Z,8.80
2023-02-19T20:49:15.443Z,8.80
2023-02-19T20:50:48.459Z,8.70
2023-02-19T20:52:21.791Z,8.90
2023-02-19T20:53:54.735Z,8.70
2023-02-19T20:55:28.697Z,8.70
2023-02-19T20:57:04.757Z,9.30
2023-02-19T20:58:37.855Z,8.70
2023-02-19T21:00:14.961Z,9.30
2023-02-19T21:01:48.236Z,8.60
2023-02-19T21:03:21.764Z,8.60
2023-02-19T21:04:54.714Z,8.60
2023-02-19T21:06:27.759Z,8.40
2023-02-19T21:08:00.674Z,8.70
2023-02-19T21:09:33.659Z,8.60
2023-02-19T21:11:06.970Z,8.70
2023-02-19T21:12:39.836Z,8.70
2023-02-19T21:14:13.322Z,8.60
2023-02-19T21:15:47.768Z,8.60
2023-02-19T21:17:20.884Z,8.90
2023-02-19T21:18:54.217Z,8.60
2023-02-19T21:20:27.134Z,8.60
2023-02-19T21:22:00.073Z,8.50
2023-02-19T21:23:33.011Z,8.60
2023-02-19T21:25:06.643Z,8.50
2023-02-19T21:26:41.438Z,8.50
2023-02-19T21:28:14.306Z,8.50
2023-02-19T21:29:47.403Z,8.50
2023-02-19T21:31:24.512Z,8.50
2023-02-19T21:32:58.370Z,8.50
2023-02-19T21:34:31.366Z,8.50
2023-02-19T21:36:05.186Z,8.50
2023-02-19T21:37:38.137Z,8.50
2023-02-19T21:39:13.186Z,8.50
2023-02-19T21:40:46.303Z,8.20
2023-02-19T21:42:18.314Z,8.50
2023-02-19T21:43:51.181Z,8.50
2023-02-19T21:45:24.455Z,8.60
2023-02-19T21:46:58.828Z,8.50
2023-02-19T21:48:31.766Z,8.50
2023-02-19T21:50:05.191Z,8.40
2023-02-19T21:51:39.494Z,8.40
2023-02-19T21:53:12.296Z,8.40
2023-02-19T21:54:45.381Z,8.40
2023-02-19T21:56:23.322Z,8.40
2023-02-19T21:57:56.318Z,8.40
2023-02-19T21:59:29.502Z,8.30
2023-02-19T22:01:02.560Z,8.40
2023-02-19T22:02:36.868Z,7.80
2023-02-19T22:04:11.391Z,7.10
2023-02-19T22:05:44.563Z,8.10
2023-02-19T22:07:17.547Z,8.50
2023-02-19T22:08:50.527Z,8.40
2023-02-19T22:10:23.446Z,8.50
2023-02-19T22:11:56.371Z,8.50
2023-02-19T22:13:29.276Z,10.00
2023-02-19T22:15:02.549Z,8.50
2023-02-19T22:16:35.477Z,8.50
2023-02-19T22:18:09.745Z,8.40
2023-02-19T22:19:42.815Z,8.40
2023-02-19T22:21:15.978Z,8.50
2023-02-19T22:22:49.821Z,8.40
2023-02-19T22:24:23.050Z,8.50
2023-02-19T22:25:56.066Z,8.40
2023-02-19T22:27:29.824Z,8.40
2023-02-19T22:29:06.857Z,8.40
2023-02-19T22:30:40.948Z,8.50
2023-02-19T22:32:14.107Z,8.50
2023-02-19T22:33:48.413Z,8.50
2023-02-19T22:35:21.611Z,8.50
2023-02-19T22:36:54.575Z,8.50
2023-02-19T22:38:26.451Z,8.50
2023-02-19T22:39:59.401Z,10.40
2023-02-19T22:41:32.426Z,8.50
2023-02-19T22:43:05.329Z,8.50
2023-02-19T22:44:38.387Z,9.00
2023-02-19T22:46:12.578Z,8.50
2023-02-19T22:47:46.910Z,7.80
2023-02-19T22:49:22.236Z,8.60
2023-02-19T22:50:54.958Z,8.50
2023-02-19T22:52:28.188Z,7.90
2023-02-19T22:54:01.494Z,8.50